CG Fir — NAYV — position and weather

sailwx.info

Track history (hours):
 
Tides and Currents Weather Stations Pressure Air Temp Water Temp Dewpoint Dewpoint Depression Visibility Wind Speed Wind Dir Waves Ship Positions

CG Fir

Last reported at 2017-Dec-16 18:30 UTC. Time now 2017-Dec-16 18:53 UTC.
Position N 46°13' W 123°45'.

Length 68 m; draft 4 m.

Type: Military. MMSI: 369915000.

Date/timePositionNaut miles runAvg speedWind from/ knotsBaromVisibWave heightAir tempDewpointWater temp
2017-Dec-16 18:30N 46°13' W 123°45'0 0.0
2017-Dec-16 18:00N 46°13' W 123°45'0 0.0
2017-Dec-16 17:30N 46°13' W 123°45'0 0.0
2017-Dec-16 17:01N 46°13' W 123°45'0 0.0
2017-Dec-16 16:31N 46°13' W 123°45'4 8.6
2017-Dec-16 16:00N 46°12' W 123°51'1 2.7
2017-Dec-16 15:29N 46°11' W 123°53'0 0.0
2017-Dec-16 14:59N 46°11' W 123°53'0 0.1
2017-Dec-16 14:29N 46°11' W 123°53'0 0.0
2017-Dec-16 13:59N 46°11' W 123°53'0 0.0
2017-Dec-16 13:29N 46°11' W 123°53'0 0.0
2017-Dec-16 12:56N 46°11' W 123°53'0 0.0
2017-Dec-16 12:29N 46°11' W 123°53'0 0.0
2017-Dec-16 11:59N 46°11' W 123°53'0 0.0
2017-Dec-16 11:29N 46°11' W 123°53'0 0.0
2017-Dec-16 10:59N 46°11' W 123°53'0 0.0
2017-Dec-16 10:29N 46°11' W 123°53'0 0.1
2017-Dec-16 09:59N 46°11' W 123°53'0 0.2
2017-Dec-16 09:29N 46°11' W 123°53'0 0.0
2017-Dec-16 08:59N 46°11' W 123°53'0 0.0
2017-Dec-16 08:29N 46°11' W 123°53'0 0.0
2017-Dec-16 07:56N 46°11' W 123°53'0 0.0
2017-Dec-16 07:29N 46°11' W 123°53'0 0.0
2017-Dec-16 06:56N 46°11' W 123°53'0 0.0
2017-Dec-16 06:29N 46°11' W 123°53'0 0.0
2017-Dec-16 06:00N 46°11' W 123°53'0 0.0
2017-Dec-16 05:30N 46°11' W 123°53'0 0.1
2017-Dec-16 04:54N 46°11' W 123°53'0 0.1
2017-Dec-16 04:30N 46°11' W 123°53'0 0.1
2017-Dec-16 03:57N 46°11' W 123°53'0 0.0
2017-Dec-16 03:29N 46°11' W 123°53'0 0.0
2017-Dec-16 02:59N 46°11' W 123°53'0 0.0
2017-Dec-16 02:29N 46°11' W 123°53'0 0.0
2017-Dec-16 01:56N 46°11' W 123°53'1 3.2
2017-Dec-16 01:30N 46°12' W 123°55'5 9.3
2017-Dec-16 01:01N 46°15' W 124°00'4 8.3
2017-Dec-16 00:31N 46°14' W 124°06'4 7.5
2017-Dec-16 00:01N 46°12' W 124°10'3 5.4
2017-Dec-15 23:30N 46°14' W 124°07'0 0.2
2017-Dec-15 22:57N 46°14' W 124°07'0 0.0
2017-Dec-15 21:20N 46°14' W 124°07'2 5.2
2017-Dec-15 21:00N 46°15' W 124°06'0 0.1
2017-Dec-15 20:16N 46°15' W 124°06'0 0.0
2017-Dec-15 20:00N 46°15' W 124°06'0 0.0
2017-Dec-15 19:21N 46°15' W 124°06'0 0.4
2017-Dec-15 19:01N 46°15' W 124°06'0 0.3
2017-Dec-15 18:30N 46°15' W 124°06'0 0.1
2017-Dec-15 18:01N 46°15' W 124°06'0 0.0
2017-Dec-15 17:31N 46°15' W 124°06'1 2.6
2017-Dec-15 17:00N 46°15' W 124°04'4 8.2
2017-Dec-15 16:30N 46°14' W 123°59'4 8.2
2017-Dec-15 16:00N 46°11' W 123°54'1 1.0
2017-Dec-15 15:28N 46°11' W 123°53'0 0.0
2017-Dec-15 14:58N 46°11' W 123°53'0 0.0
2017-Dec-15 14:28N 46°11' W 123°53'0 0.0
2017-Dec-15 13:34N 46°11' W 123°53'0 0.0
2017-Dec-15 13:28N 46°11' W 123°53'0 0.0
2017-Dec-15 12:22N 46°11' W 123°53'0 0.0
2017-Dec-15 11:58N 46°11' W 123°53'0 0.0
2017-Dec-15 11:28N 46°11' W 123°53'0 0.0
2017-Dec-15 10:56N 46°11' W 123°53'0 0.0
2017-Dec-15 10:29N 46°11' W 123°53'0 0.0
2017-Dec-15 09:47N 46°11' W 123°53'0 0.0
2017-Dec-15 09:20N 46°11' W 123°53'0 0.1
2017-Dec-15 08:59N 46°11' W 123°53'0 0.1
2017-Dec-15 08:29N 46°11' W 123°53'0 0.1
2017-Dec-15 07:58N 46°11' W 123°53'0 0.0
2017-Dec-15 07:28N 46°11' W 123°53'0 0.0
2017-Dec-15 06:58N 46°11' W 123°53'0 0.0
2017-Dec-15 06:27N 46°11' W 123°53'0 0.0
2017-Dec-15 05:55N 46°11' W 123°53'0 0.1
2017-Dec-15 05:04N 46°11' W 123°53'0 0.1
2017-Dec-15 04:58N 46°11' W 123°53'0 0.1
2017-Dec-15 04:28N 46°11' W 123°53'0 0.0
2017-Dec-15 03:43N 46°11' W 123°53'5 3.7
2017-Dec-15 02:30N 46°13' W 123°47'1 0.4
2017-Dec-15 00:59N 46°12' W 123°46'0 0.0
2017-Dec-15 00:29N 46°12' W 123°46'13 2.2
2017-Dec-14 18:31N 46°15' W 124°05'3 6.4
2017-Dec-14 18:00N 46°15' W 124°00'1 1.9
2017-Dec-14 17:29N 46°15' W 123°59'0 0.1
2017-Dec-14 16:59N 46°15' W 123°59'0 0.1
2017-Dec-14 16:29N 46°15' W 123°59'0 0.1
2017-Dec-14 15:59N 46°15' W 123°59'0 0.0
2017-Dec-14 14:59N 46°15' W 123°59'0 0.0
2017-Dec-14 14:29N 46°15' W 123°59'0 0.2
2017-Dec-14 13:59N 46°15' W 123°59'0 0.1
2017-Dec-14 13:29N 46°15' W 123°59'0 0.0
2017-Dec-14 12:59N 46°15' W 123°59'0 0.0
2017-Dec-14 12:29N 46°15' W 123°59'0 0.0
2017-Dec-14 11:59N 46°15' W 123°59'0 0.0
2017-Dec-14 11:26N 46°15' W 123°59'0 0.0
2017-Dec-14 10:56N 46°15' W 123°59'0 0.0
2017-Dec-14 10:28N 46°15' W 123°59'0 0.0
2017-Dec-14 09:59N 46°15' W 123°59'0 0.0
2017-Dec-14 09:23N 46°15' W 123°59'0 0.0
2017-Dec-14 08:59N 46°15' W 123°59'0 0.0
2017-Dec-14 08:29N 46°15' W 123°59'0 0.0
2017-Dec-14 07:59N 46°15' W 123°59'0 0.0
2017-Dec-14 07:29N 46°15' W 123°59'0 0.0
2017-Dec-14 06:56N 46°15' W 123°59'0 0.0
2017-Dec-14 06:29N 46°15' W 123°59'0 0.0
2017-Dec-14 05:59N 46°15' W 123°59'0 0.2
2017-Dec-14 05:29N 46°15' W 123°59'0 0.1
2017-Dec-14 04:59N 46°15' W 123°59'0 0.0
2017-Dec-14 04:29N 46°15' W 123°59'0 0.0
2017-Dec-14 03:59N 46°15' W 123°59'0 1.0
2017-Dec-14 03:30N 46°15' W 123°59'4 7.4
2017-Dec-14 03:00N 46°15' W 124°05'0 0.0
2017-Dec-14 02:30N 46°15' W 124°05'0 0.1
2017-Dec-14 02:01N 46°15' W 124°05'0 0.0
2017-Dec-14 01:30N 46°15' W 124°05'0 0.2
2017-Dec-14 01:00N 46°15' W 124°05'4 8.3
2017-Dec-14 00:30N 46°16' W 124°11'510.3
2017-Dec-14 00:00N 46°21' W 124°15'1514.6
2017-Dec-13 23:01N 46°35' W 124°16'021.6
2017-Dec-13 23:01N 46°35' W 124°16'713.5
2017-Dec-13 22:30N 46°42' W 124°16'714.2
2017-Dec-13 22:00N 46°49' W 124°16'714.1
2017-Dec-13 21:31N 46°56' W 124°16'4 4.9
2017-Dec-13 20:44N 46°60' W 124°15'2 9.7
2017-Dec-13 20:31N 46°58' W 124°16'5 8.6
2017-Dec-13 19:57N 46°54' W 124°12'0 0.2
2017-Dec-13 19:31N 46°54' W 124°12'0 0.7
2017-Dec-13 19:00N 46°54' W 124°11'0 0.0
2017-Dec-13 18:29N 46°54' W 124°11'0 0.0
2017-Dec-13 16:39N 46°54' W 124°11'0 0.3
2017-Dec-13 16:30N 46°54' W 124°11'1 0.0
2017-Dec-13 01:23N 46°54' W 124°12'2 6.5
2017-Dec-13 01:01N 46°52' W 124°14'0 0.9
2017-Dec-13 00:30N 46°52' W 124°14'0 0.0
2017-Dec-13 00:00N 46°52' W 124°14'0 0.0
2017-Dec-12 23:29N 46°52' W 124°14'0 0.0
2017-Dec-12 23:00N 46°52' W 124°14'0 0.1
2017-Dec-12 22:30N 46°52' W 124°14'0 0.1
2017-Dec-12 22:00N 46°52' W 124°14'0 0.0
2017-Dec-12 21:30N 46°52' W 124°14'0 0.1
2017-Dec-12 21:00N 46°52' W 124°15'3 5.8
2017-Dec-12 20:31N 46°49' W 124°16'713.5
2017-Dec-12 20:01N 46°43' W 124°16'1014.9
2017-Dec-12 19:19N 46°32' W 124°16'814.4
2017-Dec-12 18:46N 46°24' W 124°15'413.8
2017-Dec-12 18:30N 46°21' W 124°15'612.3
2017-Dec-12 18:00N 46°15' W 124°11'  
Track history (hours):
 
Tides and Currents Weather Stations Pressure Air Temp Water Temp Dewpoint Dewpoint Depression Visibility Wind Speed Wind Dir Waves Ship Positions

CG Fir

Last reported at 2017-Dec-16 18:30 UTC. Time now 2017-Dec-16 18:53 UTC.
Position N 46°13' W 123°45'.

Length 68 m; draft 4 m.

Type: Military. MMSI: 369915000.

Date/timePositionNaut miles runAvg speedWind from/ knotsBaromVisibWave heightAir tempDewpointWater temp
2017-Dec-16 18:30N 46°13' W 123°45'0 0.0
2017-Dec-16 18:00N 46°13' W 123°45'0 0.0
2017-Dec-16 17:30N 46°13' W 123°45'0 0.0
2017-Dec-16 17:01N 46°13' W 123°45'0 0.0
2017-Dec-16 16:31N 46°13' W 123°45'4 8.6
2017-Dec-16 16:00N 46°12' W 123°51'1 2.7
2017-Dec-16 15:29N 46°11' W 123°53'0 0.0
2017-Dec-16 14:59N 46°11' W 123°53'0 0.1
2017-Dec-16 14:29N 46°11' W 123°53'0 0.0
2017-Dec-16 13:59N 46°11' W 123°53'0 0.0
2017-Dec-16 13:29N 46°11' W 123°53'0 0.0
2017-Dec-16 12:56N 46°11' W 123°53'0 0.0
2017-Dec-16 12:29N 46°11' W 123°53'0 0.0
2017-Dec-16 11:59N 46°11' W 123°53'0 0.0
2017-Dec-16 11:29N 46°11' W 123°53'0 0.0
2017-Dec-16 10:59N 46°11' W 123°53'0 0.0
2017-Dec-16 10:29N 46°11' W 123°53'0 0.1
2017-Dec-16 09:59N 46°11' W 123°53'0 0.2
2017-Dec-16 09:29N 46°11' W 123°53'0 0.0
2017-Dec-16 08:59N 46°11' W 123°53'0 0.0
2017-Dec-16 08:29N 46°11' W 123°53'0 0.0
2017-Dec-16 07:56N 46°11' W 123°53'0 0.0
2017-Dec-16 07:29N 46°11' W 123°53'0 0.0
2017-Dec-16 06:56N 46°11' W 123°53'0 0.0
2017-Dec-16 06:29N 46°11' W 123°53'0 0.0
2017-Dec-16 06:00N 46°11' W 123°53'0 0.0
2017-Dec-16 05:30N 46°11' W 123°53'0 0.1
2017-Dec-16 04:54N 46°11' W 123°53'0 0.1
2017-Dec-16 04:30N 46°11' W 123°53'0 0.1
2017-Dec-16 03:57N 46°11' W 123°53'0 0.0
2017-Dec-16 03:29N 46°11' W 123°53'0 0.0
2017-Dec-16 02:59N 46°11' W 123°53'0 0.0
2017-Dec-16 02:29N 46°11' W 123°53'0 0.0
2017-Dec-16 01:56N 46°11' W 123°53'1 3.2
2017-Dec-16 01:30N 46°12' W 123°55'5 9.3
2017-Dec-16 01:01N 46°15' W 124°00'4 8.3
2017-Dec-16 00:31N 46°14' W 124°06'4 7.5
2017-Dec-16 00:01N 46°12' W 124°10'3 5.4
2017-Dec-15 23:30N 46°14' W 124°07'0 0.2
2017-Dec-15 22:57N 46°14' W 124°07'0 0.0
2017-Dec-15 21:20N 46°14' W 124°07'2 5.2
2017-Dec-15 21:00N 46°15' W 124°06'0 0.1
2017-Dec-15 20:16N 46°15' W 124°06'0 0.0
2017-Dec-15 20:00N 46°15' W 124°06'0 0.0
2017-Dec-15 19:21N 46°15' W 124°06'0 0.4
2017-Dec-15 19:01N 46°15' W 124°06'0 0.3
2017-Dec-15 18:30N 46°15' W 124°06'0 0.1
2017-Dec-15 18:01N 46°15' W 124°06'0 0.0
2017-Dec-15 17:31N 46°15' W 124°06'1 2.6
2017-Dec-15 17:00N 46°15' W 124°04'4 8.2
2017-Dec-15 16:30N 46°14' W 123°59'4 8.2
2017-Dec-15 16:00N 46°11' W 123°54'1 1.0
2017-Dec-15 15:28N 46°11' W 123°53'0 0.0
2017-Dec-15 14:58N 46°11' W 123°53'0 0.0
2017-Dec-15 14:28N 46°11' W 123°53'0 0.0
2017-Dec-15 13:34N 46°11' W 123°53'0 0.0
2017-Dec-15 13:28N 46°11' W 123°53'0 0.0
2017-Dec-15 12:22N 46°11' W 123°53'0 0.0
2017-Dec-15 11:58N 46°11' W 123°53'0 0.0
2017-Dec-15 11:28N 46°11' W 123°53'0 0.0
2017-Dec-15 10:56N 46°11' W 123°53'0 0.0
2017-Dec-15 10:29N 46°11' W 123°53'0 0.0
2017-Dec-15 09:47N 46°11' W 123°53'0 0.0
2017-Dec-15 09:20N 46°11' W 123°53'0 0.1
2017-Dec-15 08:59N 46°11' W 123°53'0 0.1
2017-Dec-15 08:29N 46°11' W 123°53'0 0.1
2017-Dec-15 07:58N 46°11' W 123°53'0 0.0
2017-Dec-15 07:28N 46°11' W 123°53'0 0.0
2017-Dec-15 06:58N 46°11' W 123°53'0 0.0
2017-Dec-15 06:27N 46°11' W 123°53'0 0.0
2017-Dec-15 05:55N 46°11' W 123°53'0 0.1
2017-Dec-15 05:04N 46°11' W 123°53'0 0.1
2017-Dec-15 04:58N 46°11' W 123°53'0 0.1
2017-Dec-15 04:28N 46°11' W 123°53'0 0.0
2017-Dec-15 03:43N 46°11' W 123°53'5 3.7
2017-Dec-15 02:30N 46°13' W 123°47'1 0.4
2017-Dec-15 00:59N 46°12' W 123°46'0 0.0
2017-Dec-15 00:29N 46°12' W 123°46'13 2.2
2017-Dec-14 18:31N 46°15' W 124°05'3 6.4
2017-Dec-14 18:00N 46°15' W 124°00'1 1.9
2017-Dec-14 17:29N 46°15' W 123°59'0 0.1
2017-Dec-14 16:59N 46°15' W 123°59'0 0.1
2017-Dec-14 16:29N 46°15' W 123°59'0 0.1
2017-Dec-14 15:59N 46°15' W 123°59'0 0.0
2017-Dec-14 14:59N 46°15' W 123°59'0 0.0
2017-Dec-14 14:29N 46°15' W 123°59'0 0.2
2017-Dec-14 13:59N 46°15' W 123°59'0 0.1
2017-Dec-14 13:29N 46°15' W 123°59'0 0.0
2017-Dec-14 12:59N 46°15' W 123°59'0 0.0
2017-Dec-14 12:29N 46°15' W 123°59'0 0.0
2017-Dec-14 11:59N 46°15' W 123°59'0 0.0
2017-Dec-14 11:26N 46°15' W 123°59'0 0.0
2017-Dec-14 10:56N 46°15' W 123°59'0 0.0
2017-Dec-14 10:28N 46°15' W 123°59'0 0.0
2017-Dec-14 09:59N 46°15' W 123°59'0 0.0
2017-Dec-14 09:23N 46°15' W 123°59'0 0.0
2017-Dec-14 08:59N 46°15' W 123°59'0 0.0
2017-Dec-14 08:29N 46°15' W 123°59'0 0.0
2017-Dec-14 07:59N 46°15' W 123°59'0 0.0
2017-Dec-14 07:29N 46°15' W 123°59'0 0.0
2017-Dec-14 06:56N 46°15' W 123°59'0 0.0
2017-Dec-14 06:29N 46°15' W 123°59'0 0.0
2017-Dec-14 05:59N 46°15' W 123°59'0 0.2
2017-Dec-14 05:29N 46°15' W 123°59'0 0.1
2017-Dec-14 04:59N 46°15' W 123°59'0 0.0
2017-Dec-14 04:29N 46°15' W 123°59'0 0.0
2017-Dec-14 03:59N 46°15' W 123°59'0 1.0
2017-Dec-14 03:30N 46°15' W 123°59'4 7.4
2017-Dec-14 03:00N 46°15' W 124°05'0 0.0
2017-Dec-14 02:30N 46°15' W 124°05'0 0.1
2017-Dec-14 02:01N 46°15' W 124°05'0 0.0
2017-Dec-14 01:30N 46°15' W 124°05'0 0.2
2017-Dec-14 01:00N 46°15' W 124°05'4 8.3
2017-Dec-14 00:30N 46°16' W 124°11'510.3
2017-Dec-14 00:00N 46°21' W 124°15'1514.6
2017-Dec-13 23:01N 46°35' W 124°16'021.6
2017-Dec-13 23:01N 46°35' W 124°16'713.5
2017-Dec-13 22:30N 46°42' W 124°16'714.2
2017-Dec-13 22:00N 46°49' W 124°16'714.1
2017-Dec-13 21:31N 46°56' W 124°16'4 4.9
2017-Dec-13 20:44N 46°60' W 124°15'2 9.7
2017-Dec-13 20:31N 46°58' W 124°16'5 8.6
2017-Dec-13 19:57N 46°54' W 124°12'0 0.2
2017-Dec-13 19:31N 46°54' W 124°12'0 0.7
2017-Dec-13 19:00N 46°54' W 124°11'0 0.0
2017-Dec-13 18:29N 46°54' W 124°11'0 0.0
2017-Dec-13 16:39N 46°54' W 124°11'0 0.3
2017-Dec-13 16:30N 46°54' W 124°11'1 0.0
2017-Dec-13 01:23N 46°54' W 124°12'2 6.5
2017-Dec-13 01:01N 46°52' W 124°14'0 0.9
2017-Dec-13 00:30N 46°52' W 124°14'0 0.0
2017-Dec-13 00:00N 46°52' W 124°14'0 0.0
2017-Dec-12 23:29N 46°52' W 124°14'0 0.0
2017-Dec-12 23:00N 46°52' W 124°14'0 0.1
2017-Dec-12 22:30N 46°52' W 124°14'0 0.1
2017-Dec-12 22:00N 46°52' W 124°14'0 0.0
2017-Dec-12 21:30N 46°52' W 124°14'0 0.1
2017-Dec-12 21:00N 46°52' W 124°15'3 5.8
2017-Dec-12 20:31N 46°49' W 124°16'713.5
2017-Dec-12 20:01N 46°43' W 124°16'1014.9
2017-Dec-12 19:19N 46°32' W 124°16'814.4
2017-Dec-12 18:46N 46°24' W 124°15'413.8
2017-Dec-12 18:30N 46°21' W 124°15'612.3
2017-Dec-12 18:00N 46°15' W 124°11'  

Dump ship's entire track history